Gilze Rijen Air Base

EHGR · Nordbrabant, Niederlande

METAR-Geschichte EHGR · Gilze Rijen Air Base

Unten siehst du die METARs der letzten paar Tage. Wähle ein Jahr, um ältere METARs ab dem Jahr 2007 zu durchsuchen.

19. Mai 2024

Uhrzeit Code Wetter Temp. Sichtweite Wolkendecke Wind METAR/SPECI
10:39
I
15 °C 5 km 700 ft 270° 270° 5 kt METAR EHGR 190839Z AUTO 27005KT 230V310 5000 BR BKN007 OVC008 15/13 Q1012 GRN
10:29
I
15 °C 4,5 km 600 ft 280° 280° 5 kt METAR EHGR 190829Z AUTO 28005KT 230V330 4500 BR BKN006 BKN008 OVC010 15/13 Q1012 YLO
10:25
I
15 °C 4,3 km 700 ft 290° 290° 5 kt METAR EHGR 190825Z AUTO 29005KT 240V310 4300 BR FEW005 BKN007 BKN009 15/14 Q1012 GRN
10:12
I
14 °C 3,9 km 500 ft 280° 280° 4 kt METAR EHGR 190812Z AUTO 28004KT 220V290 3900 BR BKN005 OVC006 14/13 Q1012 YLO
09:55
L
14 °C 3 km 300 ft 270° 270° 5 kt METAR EHGR 190755Z AUTO 27005KT 220V290 3000 BR OVC003 14/13 Q1012 YLO
09:25
L
14 °C 2,8 km 300 ft 280° 280° 5 kt METAR EHGR 190725Z AUTO 28005KT 240V320 2800 BR BKN003 OVC004 14/13 Q1012 YLO
09:01
L
13 °C 2,2 km 300 ft 280° 280° 6 kt METAR EHGR 190701Z AUTO 28006KT 230V310 2200 BR OVC003 13/13 Q1011 YLO
08:55
L
13 °C 2 km 200 ft 270° 270° 5 kt METAR EHGR 190655Z AUTO 27005KT 230V300 2000 BR BKN002 OVC003 13/13 Q1011 AMB
08:38
L
13 °C 1,7 km 200 ft 270° 270° 5 kt METAR EHGR 190638Z AUTO 27005KT 240V300 1700 BR OVC002 13/13 Q1011 AMB
08:25
L
13 °C 1,1 km 200 ft 270° 270° 5 kt METAR EHGR 190625Z AUTO 27005KT 220V290 1100 BR OVC002 13/13 Q1011 AMB
08:17
L
13 °C 1 km 100 ft 270° 270° 4 kt METAR EHGR 190617Z AUTO 27004KT 240V320 1000 BR OVC001 13/13 Q1011 RED
08:11
L
13 °C 900 m - 270° 270° 5 kt METAR EHGR 190611Z AUTO 27005KT 230V320 0900 FG NCD 13/13 Q1011 AMB
08:04
L
13 °C 900 m 100 ft 270° 270° 6 kt METAR EHGR 190604Z AUTO 27006KT 230V290 0900 FG VV001 13/12 Q1011 AMB
07:55
L
13 °C 550 m 100 ft 260° 260° 5 kt METAR EHGR 190555Z AUTO 26005KT 230V290 0550 FG VV001 13/12 Q1011 RED
07:41
L
13 °C 750 m 100 ft 260° 260° 5 kt METAR EHGR 190541Z AUTO 26005KT 230V300 0750 FG VV001 13/12 Q1011 RED
07:25
L
13 °C 1,3 km 200 ft 250° 250° 5 kt METAR EHGR 190525Z AUTO 25005KT 230V290 1300 BR OVC002 13/12 Q1011 AMB
07:04
L
13 °C 1,5 km 200 ft 260° 260° 4 kt METAR EHGR 190504Z AUTO 26004KT 230V300 1500 BR OVC002 13/12 Q1011 AMB
06:55
L
13 °C 1,7 km 200 ft 250° 250° 4 kt METAR EHGR 190455Z AUTO 25004KT 220V290 1700 BR OVC002 13/12 Q1011 AMB
06:31
L
13 °C 1,8 km 200 ft Var Var 2 kt METAR EHGR 190431Z AUTO VRB02KT 1800 BR BKN002 FEW015CB 13/13 Q1011 AMB
06:25
L
13 °C 2 km 300 ft 260° 260° 3 kt METAR EHGR 190425Z AUTO 26003KT 270V340 2000 BR BKN003 FEW015CB 13/12 Q1011 YLO
05:55
L
13 °C 2,4 km 300 ft 300° 300° 4 kt METAR EHGR 190355Z AUTO 30004KT 260V320 2400 BR BKN003 BKN005 FEW015CB 13/12 Q1010 YLO
05:25
L
13 °C 2,4 km 300 ft 310° 310° 7 kt METAR EHGR 190325Z AUTO 31007KT 260V330 2400 BR BKN003 BKN004 FEW015CB 13/12 Q1010 YLO
04:55
L
13 °C 2,6 km 300 ft 290° 290° 6 kt METAR EHGR 190255Z AUTO 29006KT 270V340 2600 BR BKN003 OVC004 13/13 Q1010 YLO
04:25
L
13 °C 2,4 km 300 ft 290° 290° 7 kt METAR EHGR 190225Z AUTO 29007KT 260V320 2400 BR BKN003 OVC005 13/13 Q1010 YLO
03:55
L
13 °C 2,6 km 400 ft 310° 310° 6 kt METAR EHGR 190155Z AUTO 31006KT 260V340 2600 BR BKN004 OVC005 13/13 Q1010 YLO
03:25
L
13 °C 2,9 km 400 ft 280° 280° 6 kt METAR EHGR 190125Z AUTO 28006KT 260V320 2900 BR OVC004 13/13 Q1011 YLO
02:55
L
13 °C 2 km 400 ft 260° 260° 5 kt METAR EHGR 190055Z AUTO 26005KT 240V300 2000 BR FEW003 OVC004 13/13 Q1011 YLO
02:25
L
13 °C 2,6 km 300 ft Var Var 2 kt METAR EHGR 190025Z AUTO VRB02KT 2600 BR OVC003 13/13 Q1011 YLO
01:55
L
13 °C 3,2 km 400 ft 280° 280° 2 kt METAR EHGR 182355Z AUTO 28002KT 3200 BR OVC004 13/13 Q1011 YLO
01:39
L
13 °C 7 km 400 ft 230° 230° 3 kt METAR EHGR 182339Z AUTO 23003KT 210V280 7000 BR OVC004 13/12 Q1011 YLO
01:25
I
12 °C 10 km+ 500 ft 190° 190° 3 kt METAR EHGR 182325Z AUTO 19003KT 110V280 9999 SCT004 BKN005 12/12 Q1011 YLO
01:09
I
12 °C 10 km+ 500 ft 260° 260° 1 kt METAR EHGR 182309Z AUTO 26001KT 9999 BKN005 BKN006 12/11 Q1011 YLO
00:55
M
12 °C 7 km - Var Var 2 kt METAR EHGR 182255Z AUTO VRB02KT 7000 BR SCT006 12/11 Q1011 YLO
00:25
V
13 °C 10 km+ 10.000 ft 330° 330° 3 kt METAR EHGR 182225Z AUTO 33003KT 9999 FEW015CB OVC100 13/11 Q1011 BLU

18. Mai 2024

Uhrzeit Code Wetter Temp. Sichtweite Wolkendecke Wind METAR/SPECI
23:55
V
12 °C 10 km+ 13.000 ft Var Var 2 kt METAR EHGR 182155Z AUTO VRB02KT 9999 OVC130 12/12 Q1010 BLU
23:25
V
13 °C 10 km+ 12.000 ft 180° 180° 1 kt METAR EHGR 182125Z AUTO 18001KT 9999 FEW015CB OVC120 13/12 Q1010 BLU
22:55
V
14 °C 10 km+ 10.000 ft 300° 300° 7 kt METAR EHGR 182055Z AUTO 30007KT 270V010 9999 FEW015CB OVC100 14/11 Q1010 BLU
22:25
V
14 °C 10 km+ 8.700 ft 300° 300° 11 kt METAR EHGR 182025Z AUTO 30011KT 270V330 9999 -RA FEW015CB BKN087 OVC092 14/12 Q1010 RERA REDZ BLU
21:55
V
15 °C 10 km+ 10.000 ft 310° 310° 8 kt METAR EHGR 181955Z AUTO 31008KT 270V340 9999 FEW015CB SCT082 OVC100 15/14 Q1010 BLU
21:25
V
15 °C 10 km+ 9.700 ft 340° 340° 4 kt METAR EHGR 181925Z AUTO 34004KT 290V040 9999 BKN097 OVC100 15/14 Q1011 BLU
21:13
V
15 °C 9 km 10.000 ft 350° 350° 4 kt METAR EHGR 181913Z AUTO 35004KT 310V060 9000 BR OVC100 15/14 Q1010 BLU
21:00
V
15 °C 10 km+ 10.000 ft 360° 360° 3 kt METAR EHGR 181900Z AUTO 36003KT 320V030 9999 SCT052 OVC100 15/13 Q1010 BLU
20:59
M
15 °C 6 km 5.200 ft 360° 360° 3 kt METAR EHGR 181859Z AUTO 36003KT 330V040 6000 BR BKN052 BKN089 OVC100 15/13 Q1010 WHT
20:25
V
15 °C 10 km+ 9.000 ft 240° 240° 4 kt METAR EHGR 181825Z AUTO 24004KT 9999 SCT085 BKN090 OVC120 15/13 Q1010 BLU
19:55
V
15 °C 10 km+ 10.000 ft 260° 260° 6 kt METAR EHGR 181755Z AUTO 26006KT 240V300 9999 FEW015CB OVC100 15/13 Q1010 RETS BLU
19:42
V
15 °C 10 km+ 7.700 ft 270° 270° 8 kt METAR EHGR 181742Z AUTO 27008KT 250V310 9999 TS FEW015CB BKN077 BKN084 15/13 Q1010 BLU
19:25
M
14 °C 10 km+ 1.500 ft 250° 250° 11 kt METAR EHGR 181725Z AUTO 25011KT 220V300 9999 -SHRA BKN015CB BKN067 OVC075 14/12 Q1010 RETSRA WHT
19:15
M
14 °C 10 km+ 1.500 ft 250° 250° 9 kt METAR EHGR 181715Z AUTO 25009KT 210V300 9999 SHRA BKN015CB OVC066 14/12 Q1010 WHT
19:03
M
14 °C 6 km 1.500 ft 260° 260° 11 kt METAR EHGR 181703Z AUTO 26011KT 230V320 6000 TSRA BKN015CB BKN062 OVC068 14/11 Q1010 WHT
18:55
M
14 °C 9 km 1.500 ft 260° 260° 12 kt METAR EHGR 181655Z AUTO 26012KT 220V320 9000 TSRA BKN015CB BKN059 OVC064 14/11 Q1010 REGR WHT
18:39
I
14 °C 2,7 km 4.500 ft 300° 300° 16 kt METAR EHGR 181639Z AUTO 30016KT 270V340 2700 TSGRRA SCT015CB SCT040 BKN045 14/10 Q1011 YLO
18:30
I
15 °C 2,6 km 3.100 ft 350° 350° 6 - 16 kt METAR EHGR 181630Z AUTO 35006G16KT 270V340 2600 +TSRA FEW001 SCT015CB BKN031 15/13 Q1011 YLO
18:27
I
15 °C 4 km 3.100 ft 010° 010° 3 kt METAR EHGR 181627Z AUTO 01003KT 280V360 4000 +TSRA FEW001 SCT015CB BKN031 15/13 Q1011 GRN
18:25
I
16 °C 4,3 km 4.300 ft 330° 330° 3 kt METAR EHGR 181625Z AUTO 33003KT 220V360 4300 TSRA FEW004 FEW015CB SCT038 BKN043 16/14 Q1011 GRN
18:08
V
16 °C 10 km+ 3.900 ft 240° 240° 3 kt METAR EHGR 181608Z AUTO 24003KT 220V310 9999 TS FEW015CB SCT019 BKN039 OVC044 16/14 Q1010 WHT
17:55
V
15 °C 10 km+ 5.300 ft 030° 030° 2 kt METAR EHGR 181555Z AUTO 03002KT 9999 TS FEW015CB SCT049 BKN053 OVC059 15/13 Q1010 BLU
17:25
V
16 °C 10 km+ 5.400 ft 080° 080° 10 kt METAR EHGR 181525Z AUTO 08010KT 330V120 9999 -TSRA FEW019CB SCT044 BKN054 16/11 Q1010 BLU
17:21
V
16 °C 10 km+ 4.000 ft 070° 070° 14 kt METAR EHGR 181521Z AUTO 07014KT 330V120 9999 -TSRA FEW020CB SCT035 BKN040 16/10 Q1010 BLU
16:55
V
20 °C 10 km+ 9.700 ft 300° 300° 11 kt METAR EHGR 181455Z AUTO 30011KT 270V340 9999 TS FEW023CB SCT092 BKN097 20/15 Q1010 BLU
16:25
M
21 °C 10 km+ 2.900 ft 270° 270° 8 kt METAR EHGR 181425Z AUTO 27008KT 230V300 9999 SCT025 BKN029 BKN037 21/16 Q1010 BLU
15:55
V
22 °C 10 km+ 10.000 ft 270° 270° 8 kt METAR EHGR 181355Z AUTO 27008KT 230V310 9999 SCT097 BKN100 22/16 Q1010 BLU
15:25
V
21 °C 10 km+ 3.900 ft 240° 240° 4 kt METAR EHGR 181325Z AUTO 24004KT 210V300 9999 FEW034 BKN039 BKN043 21/14 Q1010 BLU
14:55
V
21 °C 10 km+ - 240° 240° 6 kt METAR EHGR 181255Z AUTO 24006KT 200V310 9999 SCT039 21/15 Q1010 BLU
14:36
V
21 °C 10 km+ - 260° 260° 5 kt METAR EHGR 181236Z AUTO 26005KT 180V290 9999 FEW021 21/15 Q1011 BLU
14:33
V
21 °C 10 km+ - 230° 230° 6 kt METAR EHGR 181233Z AUTO 23006KT 200V280 9999 SCT021 21/16 Q1011 WHT
14:25
V
21 °C 9 km - 240° 240° 6 kt METAR EHGR 181225Z AUTO 24006KT 190V270 9000 HZ FEW100 21/15 Q1011 BLU
14:09
V
21 °C 9 km - 260° 260° 5 kt METAR EHGR 181209Z AUTO 26005KT 180V340 9000 HZ SCT020 21/15 Q1011 WHT
13:55
V
20 °C 8 km - 280° 280° 5 kt METAR EHGR 181155Z AUTO 28005KT 190V340 8000 HZ NCD 20/16 Q1011 BLU
13:40
V
20 °C 9 km - 280° 280° 5 kt METAR EHGR 181140Z AUTO 28005KT 210V300 9000 HZ FEW019 20/15 Q1011 BLU
13:27
V
20 °C 8 km - 240° 240° 4 kt METAR EHGR 181127Z AUTO 24004KT 190V320 8000 HZ FEW017 20/15 Q1011 BLU
13:25
M
20 °C 8 km 1.600 ft 250° 250° 4 kt METAR EHGR 181125Z AUTO 25004KT 190V320 8000 HZ BKN016 20/15 Q1011 WHT
13:20
V
20 °C 8 km - 260° 260° 4 kt METAR EHGR 181120Z AUTO 26004KT 200V310 8000 HZ SCT016 20/15 Q1011 WHT
13:09
V
19 °C 8 km - 280° 280° 4 kt METAR EHGR 181109Z AUTO 28004KT 170V320 8000 HZ FEW015 19/15 Q1011 BLU
12:56
M
19 °C 7 km - 240° 240° 4 kt METAR EHGR 181056Z AUTO 24004KT 170V280 7000 BR SCT016 19/15 Q1011 WHT
12:55
M
19 °C 7 km - 250° 250° 4 kt METAR EHGR 181055Z AUTO 25004KT 170V270 7000 BR SCT014 SCT016 19/16 Q1011 GRN
12:25
M
18 °C 6 km 1.200 ft 240° 240° 3 kt METAR EHGR 181025Z AUTO 24003KT 6000 BR BKN012 18/15 Q1011 GRN
12:12
M
18 °C 5 km - Var Var 2 kt METAR EHGR 181012Z AUTO VRB02KT 5000 BR SCT012 18/15 Q1011 GRN
12:05
M
18 °C 5 km - 320° 320° 3 kt METAR EHGR 181005Z AUTO 32003KT 5000 BR FEW012 SCT110 18/15 Q1011 WHT
11:55
M
18 °C 7 km 1.100 ft 320° 320° 3 kt METAR EHGR 180955Z AUTO 32003KT 270V350 7000 BR BKN011 18/15 Q1011 GRN
11:40
I
18 °C 5 km 900 ft 290° 290° 3 kt METAR EHGR 180940Z AUTO 29003KT 230V010 5000 BR SCT007 OVC009 18/15 Q1011 GRN
11:25
I
16 °C 4,5 km 1.000 ft 280° 280° 4 kt METAR EHGR 180925Z AUTO 28004KT 250V340 4500 BR FEW007 SCT008 OVC010 16/15 Q1011 GRN
11:06
I
16 °C 3,9 km 700 ft 280° 280° 4 kt METAR EHGR 180906Z AUTO 28004KT 200V300 3900 BR FEW006 BKN007 OVC008 16/15 Q1011 GRN
10:59
I
16 °C 3,9 km 700 ft 250° 250° 3 kt METAR EHGR 180859Z AUTO 25003KT 3900 BR FEW006 BKN007 OVC008 16/15 Q1011 GRN
10:55
I
16 °C 4 km 600 ft 250° 250° 3 kt METAR EHGR 180855Z AUTO 25003KT 4000 BR FEW005 BKN006 OVC008 16/15 Q1011 YLO
10:25
I
16 °C 3,5 km 500 ft 290° 290° 3 kt METAR EHGR 180825Z AUTO 29003KT 220V340 3500 BR OVC005 16/14 Q1011 YLO
09:55
L
15 °C 2,6 km 400 ft Var Var 2 kt METAR EHGR 180755Z AUTO VRB02KT 2600 BR BKN004 OVC005 15/14 Q1011 YLO
09:25
L
15 °C 2,6 km 400 ft Var Var 2 kt METAR EHGR 180725Z AUTO VRB02KT 2600 BR BKN004 OVC006 15/14 Q1010 YLO
08:55
L
15 °C 2,1 km 400 ft 280° 280° 3 kt METAR EHGR 180655Z AUTO 28003KT 230V300 2100 BR BKN004 OVC005 15/14 Q1010 YLO
08:25
L
14 °C 1,7 km 300 ft 300° 300° 4 kt METAR EHGR 180625Z AUTO 30004KT 250V330 1700 BR OVC003 14/14 Q1010 YLO
07:55
L
14 °C 1,7 km 400 ft 300° 300° 5 kt METAR EHGR 180555Z AUTO 30005KT 250V340 1700 BR OVC004 14/14 Q1010 YLO
07:25
L
14 °C 1,7 km 400 ft 320° 320° 2 kt METAR EHGR 180525Z AUTO 32002KT 1700 BR OVC004 14/13 Q1010 YLO
07:16
L
14 °C 1,7 km 400 ft 330° 330° 2 kt METAR EHGR 180516Z AUTO 33002KT 1700 BR OVC004 14/14 Q1010 YLO
07:06
L
14 °C 1,7 km 300 ft Var Var 1 kt METAR EHGR 180506Z AUTO VRB01KT 1700 BR BKN003 OVC005 14/13 Q1010 YLO
06:55
L
14 °C 1,4 km 300 ft 350° 350° 2 kt METAR EHGR 180455Z AUTO 35002KT 1400 BR SCT002 OVC003 14/14 Q1009 AMB
06:25
L
13 °C 1 km 10.400 ft 290° 290° 13 kt METAR EHGR 180425Z AUTO 29013KT 260V360 1000 BR FEW001 FEW015CB SCT058 OVC104 13/13 Q1009 AMB
06:12
L
13 °C 900 m 5.700 ft 270° 270° 11 kt METAR EHGR 180412Z AUTO 27011KT 230V300 0900 -RADZ FEW015CB BKN057 OVC064 13/13 Q1008 AMB
05:55
L
13 °C 1 km 6.100 ft 250° 250° 9 kt METAR EHGR 180355Z AUTO 25009KT 220V320 1000 SHRA FEW015CB SCT054 BKN061 13/13 Q1009 REDZ AMB
05:31
L
13 °C 1,2 km 6.300 ft 280° 280° 4 kt METAR EHGR 180331Z AUTO 28004KT 230V360 1200 RADZ FEW001 FEW015CB SCT048 BKN063 13/13 Q1009 AMB
05:30
L
13 °C 1,3 km 7.500 ft 270° 270° 5 kt METAR EHGR 180330Z AUTO 27005KT 230V360 1300 -RADZ FEW001 SCT002 FEW015CB OVC075 13/13 Q1009 AMB
05:25
L
13 °C 1,3 km 7.800 ft 250° 250° 7 kt METAR EHGR 180325Z AUTO 25007KT 230V300 1300 BR SCT001 FEW015CB OVC078 13/13 Q1009 RED
05:20
L
13 °C 1,2 km 7.800 ft 250° 250° 7 kt METAR EHGR 180320Z AUTO 25007KT 1200 BR SCT001 FEW015CB SCT061 OVC078 13/13 Q1009 RED
05:16
L
13 °C 1,2 km 7.900 ft 250° 250° 7 kt METAR EHGR 180316Z AUTO 25007KT 1200 DZ FEW001 FEW015CB SCT068 BKN079 13/13 Q1009 AMB
05:07
L
13 °C 1,3 km 6.600 ft 250° 250° 4 kt METAR EHGR 180307Z AUTO 25004KT 230V310 1300 -DZRA FEW001 SCT008 FEW015CB BKN066 13/13 Q1009 AMB
04:55
I
13 °C 1,5 km 800 ft 240° 240° 3 kt METAR EHGR 180255Z AUTO 24003KT 230V300 1500 -RA FEW001 SCT007 BKN008 FEW015CB 13/13 Q1009 RERA REDZ AMB
04:32
L
13 °C 1,4 km 1.000 ft 190° 190° 3 kt METAR EHGR 180232Z AUTO 19003KT 150V210 1400 -RADZ FEW002 SCT007 BKN010 FEW015CB 13/13 Q1009 AMB
04:25
L
13 °C 1,7 km 400 ft Var Var 2 kt METAR EHGR 180225Z AUTO VRB02KT 1700 BR BKN004 BKN005 BKN007 FEW015CB 13/13 Q1009 YLO
04:05
I
13 °C 1,5 km 500 ft 230° 230° 4 kt METAR EHGR 180205Z AUTO 23004KT 200V270 1500 BR FEW001 BKN005 FEW015CB 13/13 Q1009 AMB
03:55
L
13 °C 1,2 km 600 ft 210° 210° 5 kt METAR EHGR 180155Z AUTO 21005KT 170V270 1200 DZ BKN000 BKN006 FEW015CB BKN054 13/13 Q1009 RED
03:35
I
13 °C 1,5 km 8.400 ft 220° 220° 4 kt METAR EHGR 180135Z AUTO 22004KT 200V260 1500 -RA FEW012 FEW015CB SCT076 BKN084 13/13 Q1009 AMB
03:25
I
13 °C 1,6 km 10.000 ft 200° 200° 3 kt METAR EHGR 180125Z AUTO 20003KT 140V230 1600 BR FEW015CB SCT091 OVC100 13/13 Q1009 YLO
03:14
I
12 °C 1,8 km 11.000 ft 230° 230° 3 kt METAR EHGR 180114Z AUTO 23003KT 190V250 1800 BR FEW088 OVC110 12/12 Q1009 YLO
03:06
L
12 °C 400 m 11.000 ft 260° 260° 3 kt METAR EHGR 180106Z AUTO 26003KT 0400 FG FEW015CB OVC110 12/12 Q1009 RED
02:55
L
12 °C 1,2 km 10.000 ft 290° 290° 3 kt METAR EHGR 180055Z AUTO 29003KT 1200 BR FEW015CB OVC100 12/12 Q1009 AMB
02:42
I
12 °C 1,5 km - 280° 280° 2 kt METAR EHGR 180042Z AUTO 28002KT 1500 BR FEW015CB SCT100 12/12 Q1009 AMB
02:41
I
12 °C 1,6 km - 270° 270° 3 kt METAR EHGR 180041Z AUTO 27003KT 1600 BR FEW015CB SCT100 12/12 Q1009 YLO
02:37
L
12 °C 1,4 km 10.000 ft 270° 270° 3 kt METAR EHGR 180037Z AUTO 27003KT 1400 BR FEW015CB BKN100 12/12 Q1009 AMB
02:25
I
12 °C 1,8 km 10.000 ft 290° 290° 3 kt METAR EHGR 180025Z AUTO 29003KT 1800 BR SCT097 OVC100 12/12 Q1009 YLO
02:21
I
12 °C 1,7 km 10.000 ft 290° 290° 2 kt METAR EHGR 180021Z AUTO 29002KT 1700 BR SCT097 OVC100 12/12 Q1009 YLO
01:55
L
12 °C 1,3 km 9.700 ft 290° 290° 3 kt METAR EHGR 172355Z AUTO 29003KT 1300 BR OVC097 12/12 Q1009 AMB
01:44
L
12 °C 1,3 km 9.500 ft 280° 280° 3 kt METAR EHGR 172344Z AUTO 28003KT 1300 BR BKN095 OVC100 12/12 Q1009 AMB
01:25
L
12 °C 350 m 10.000 ft 280° 280° 3 kt METAR EHGR 172325Z AUTO 28003KT 0350 FG BKN100 OVC330 12/12 Q1009 RED
01:11
L
12 °C 750 m 33.000 ft 300° 300° 3 kt METAR EHGR 172311Z AUTO 30003KT 0750 FG OVC330 12/12 Q1009 RED
01:04
L
12 °C 1,1 km - Var Var 2 kt METAR EHGR 172304Z AUTO VRB02KT 1100 BR SCT340 12/12 Q1009 AMB
00:55
I
12 °C 2,3 km 34.000 ft 300° 300° 3 kt METAR EHGR 172255Z AUTO 30003KT 210V300 2300 BR OVC340 12/12 Q1009 YLO
00:25
I
12 °C 2,7 km 14.000 ft 310° 310° 4 kt METAR EHGR 172225Z AUTO 31004KT 280V020 2700 BR FEW015CB OVC140 12/12 Q1009 YLO

17. Mai 2024

Uhrzeit Code Wetter Temp. Sichtweite Wolkendecke Wind METAR/SPECI
23:55
I
14 °C 3,4 km 10.000 ft 310° 310° 3 kt METAR EHGR 172155Z AUTO 31003KT 280V020 3400 BR OVC100 14/13 Q1009 YLO
23:27
I
14 °C 3,5 km 10.000 ft 320° 320° 4 kt METAR EHGR 172127Z AUTO 32004KT 290V020 3500 BR FEW006 SCT099 OVC100 14/14 Q1009 YLO
23:25
I
14 °C 3,9 km 10.000 ft 320° 320° 4 kt METAR EHGR 172125Z AUTO 32004KT 290V020 3900 BR FEW006 OVC100 14/13 Q1009 GRN
22:55
I
14 °C 4,6 km 10.000 ft 330° 330° 7 kt METAR EHGR 172055Z AUTO 33007KT 4600 BR FEW015CB SCT097 OVC100 14/14 Q1009 GRN
22:44
I
14 °C 4,3 km 8.900 ft 320° 320° 5 kt METAR EHGR 172044Z AUTO 32005KT 290V360 4300 BR FEW004 BKN089 OVC100 14/14 Q1009 GRN
22:35
L
14 °C 4,2 km 400 ft 320° 320° 4 kt METAR EHGR 172035Z AUTO 32004KT 300V010 4200 BR BKN004 OVC087 14/14 Q1009 YLO
22:25
I
14 °C 3,9 km 500 ft 310° 310° 5 kt METAR EHGR 172025Z AUTO 31005KT 300V360 3900 BR SCT003 BKN005 BKN051 14/14 Q1009 YLO
22:11
I
14 °C 4,2 km 7.800 ft 330° 330° 5 kt METAR EHGR 172011Z AUTO 33005KT 290V020 4200 BR FEW004 SCT006 BKN078 14/14 Q1009 YLO
21:59
M
14 °C 5 km 7.800 ft 340° 340° 5 kt METAR EHGR 171959Z AUTO 34005KT 280V020 5000 BR FEW005 SCT007 OVC078 14/14 Q1009 GRN
21:55
I
14 °C 4,4 km 600 ft 330° 330° 5 kt METAR EHGR 171955Z AUTO 33005KT 280V020 4400 BR SCT004 BKN006 BKN007 14/14 Q1009 YLO
21:36
I
14 °C 4,7 km 600 ft 330° 330° 5 kt METAR EHGR 171936Z AUTO 33005KT 290V020 4700 BR SCT004 BKN006 FEW015CB BKN063 14/14 Q1009 YLO
21:25
I
14 °C 3,6 km 5.800 ft 340° 340° 5 kt METAR EHGR 171925Z AUTO 34005KT 290V010 3600 DZ SCT004 SCT006 FEW015CB BKN058 14/14 Q1009 YLO
21:16
I
14 °C 3,6 km 5.800 ft 320° 320° 7 kt METAR EHGR 171916Z AUTO 32007KT 270V020 3600 -DZ FEW005 FEW015CB BKN058 BKN065 14/14 Q1009 YLO
21:08
I
15 °C 4,3 km 800 ft 340° 340° 8 kt METAR EHGR 171908Z AUTO 34008KT 280V030 4300 -SHRA SCT006 BKN008 BKN009 FEW015CB 15/14 Q1009 YLO
21:04
I
15 °C 4,5 km 700 ft 340° 340° 8 kt METAR EHGR 171904Z AUTO 34008KT 280V050 4500 -SHRA FEW005 BKN007 BKN008 FEW015CB 15/14 Q1009 GRN
20:55
I
15 °C 5 km 600 ft 330° 330° 5 kt METAR EHGR 171855Z AUTO 33005KT 310V040 5000 BR SCT005 BKN006 FEW015CB BKN043 15/14 Q1009 YLO
20:56
I
15 °C 4,6 km 700 ft 340° 340° 6 kt METAR EHGR 171856Z AUTO 34006KT 290V050 4600 BR FEW005 BKN007 BKN008 FEW015CB 15/14 Q1009 GRN
20:35
I
15 °C 5 km 700 ft 320° 320° 5 kt METAR EHGR 171835Z AUTO 32005KT 280V020 5000 BR FEW004 SCT005 BKN007 15/14 Q1008 YLO
20:34
I
15 °C 5 km 800 ft 320° 320° 5 kt METAR EHGR 171834Z AUTO 32005KT 280V020 5000 BR FEW005 SCT007 BKN008 15/14 Q1008 GRN
20:29
I
15 °C 5 km 800 ft 330° 330° 5 kt METAR EHGR 171829Z AUTO 33005KT 280V020 5000 BR FEW005 SCT006 BKN008 15/14 Q1008 YLO
20:25
I
15 °C 5 km 700 ft 320° 320° 5 kt METAR EHGR 171825Z AUTO 32005KT 260V030 5000 BR FEW005 BKN007 BKN008 15/14 Q1008 GRN
20:17
I
15 °C 5 km 700 ft 320° 320° 6 kt METAR EHGR 171817Z AUTO 32006KT 260V030 5000 BR FEW005 BKN007 OVC008 15/14 Q1008 GRN
20:08
I
15 °C 6 km 700 ft 320° 320° 6 kt METAR EHGR 171808Z AUTO 32006KT 280V040 6000 BR FEW005 BKN007 OVC008 15/14 Q1008 GRN
19:59
I
15 °C 5 km 700 ft 320° 320° 6 kt METAR EHGR 171759Z AUTO 32006KT 280V020 5000 BR SCT005 BKN007 BKN009 15/14 Q1008 YLO
19:55
I
15 °C 5 km 900 ft 330° 330° 5 kt METAR EHGR 171755Z AUTO 33005KT 280V020 5000 BR FEW006 SCT007 BKN009 15/14 Q1008 GRN
19:25
I
15 °C 6 km 800 ft 320° 320° 5 kt METAR EHGR 171725Z AUTO 32005KT 280V010 6000 BR FEW006 SCT007 BKN008 FEW015CB 15/15 Q1008 GRN
19:06
I
15 °C 5 km 800 ft 310° 310° 3 kt METAR EHGR 171706Z AUTO 31003KT 290V030 5000 BR FEW005 SCT007 BKN008 FEW015CB 15/15 Q1008 GRN
19:01
I
15 °C 4,7 km 800 ft 340° 340° 4 kt METAR EHGR 171701Z AUTO 34004KT 280V010 4700 BR FEW005 SCT006 BKN008 SCT015CB 15/15 Q1008 YLO
18:55
I
15 °C 4,3 km 1.900 ft 320° 320° 6 kt METAR EHGR 171655Z AUTO 32006KT 280V360 4300 SHRA FEW006 SCT011 SCT015CB BKN019 15/15 Q1008 GRN
18:42
I
15 °C 2,7 km 1.500 ft 330° 330° 9 kt METAR EHGR 171642Z AUTO 33009KT 280V010 2700 +SHRA BKN015CB SCT022 BKN026 15/15 Q1008 YLO
18:25
I
15 °C 4,2 km 1.500 ft 320° 320° 7 kt METAR EHGR 171625Z AUTO 32007KT 280V010 4200 +RA BKN015CB SCT022 BKN044 15/15 Q1008 GRN
18:18
I
15 °C 3,9 km 1.500 ft 330° 330° 6 kt METAR EHGR 171618Z AUTO 33006KT 280V010 3900 RA BKN015CB BKN022 BKN029 15/15 Q1008 GRN
18:00
M
16 °C 5 km 1.500 ft 320° 320° 8 kt METAR EHGR 171600Z AUTO 32008KT 280V020 5000 SHRA BKN015CB SCT029 BKN038 16/14 Q1008 WHT
17:55
M
16 °C 10 km+ 1.500 ft 320° 320° 7 kt METAR EHGR 171555Z AUTO 32007KT 280V020 9999 SHRA BKN015CB BKN016 OVC029 16/14 Q1008 WHT
17:42
M
17 °C 10 km+ 1.800 ft 330° 330° 7 kt METAR EHGR 171542Z AUTO 33007KT 270V030 9999 -SHRA SCT015CB BKN018 OVC022 17/14 Q1008 WHT
17:25
M
17 °C 10 km+ 1.700 ft 310° 310° 10 kt METAR EHGR 171525Z AUTO 31010KT 270V010 9999 FEW015CB BKN017 BKN026 OVC031 17/14 Q1008 WHT
16:56
V
18 °C 10 km+ 3.800 ft 310° 310° 9 kt METAR EHGR 171456Z AUTO 31009KT 250V350 9999 SCT016 SCT021 BKN038 18/15 Q1008 WHT
16:55
V
18 °C 10 km+ 3.900 ft 300° 300° 9 kt METAR EHGR 171455Z AUTO 30009KT 270V330 9999 FEW016 BKN039 BKN045 18/14 Q1008 BLU
16:25
M
17 °C 10 km+ 1.600 ft 310° 310° 10 kt METAR EHGR 171425Z AUTO 31010KT 290V010 9999 BKN016 OVC020 17/14 Q1008 REDZ WHT
15:55
M
17 °C 10 km+ 1.800 ft 310° 310° 9 kt METAR EHGR 171355Z AUTO 31009KT 280V010 9999 +DZ BKN018 BKN023 OVC035 17/14 Q1008 WHT
15:29
V
18 °C 10 km+ 5.000 ft 320° 320° 9 kt METAR EHGR 171329Z AUTO 32009KT 280V360 9999 SCT021 SCT037 BKN050 18/14 Q1008 WHT
15:25
V
18 °C 10 km+ 5.000 ft 320° 320° 9 kt METAR EHGR 171325Z AUTO 32009KT 260V350 9999 FEW021 BKN050 OVC055 18/14 Q1008 BLU
15:21
V
18 °C 10 km+ 5.000 ft 320° 320° 9 kt METAR EHGR 171321Z AUTO 32009KT 260V020 9999 FEW021 SCT031 BKN050 18/14 Q1008 BLU
15:01
M
18 °C 10 km+ 2.000 ft 310° 310° 10 kt METAR EHGR 171301Z AUTO 31010KT 270V010 9999 BKN020 BKN035 OVC052 18/14 Q1008 WHT
14:55
M
19 °C 10 km+ 2.600 ft 320° 320° 10 kt METAR EHGR 171255Z AUTO 32010KT 270V020 9999 SCT020 BKN026 BKN055 19/14 Q1008 WHT NOSIG
14:39
M
18 °C 10 km+ 2.300 ft 330° 330° 10 kt METAR EHGR 171239Z AUTO 33010KT 260V340 9999 SCT019 BKN023 BKN032 18/14 Q1008 WHT NOSIG
14:33
M
18 °C 10 km+ 2.500 ft 330° 330° 10 kt METAR EHGR 171233Z AUTO 33010KT 260V340 9999 FEW021 BKN025 BKN031 18/14 Q1008 BLU NOSIG
14:25
M
18 °C 10 km+ 2.200 ft 350° 350° 9 kt METAR EHGR 171225Z AUTO 35009KT 270V020 9999 SCT019 OVC022 18/14 Q1008 WHT NOSIG
14:10
M
18 °C 10 km+ 2.300 ft 330° 330° 9 kt METAR EHGR 171210Z AUTO 33009KT 270V020 9999 SCT019 OVC023 18/13 Q1008 WHT NOSIG
13:55
M
18 °C 10 km+ 1.700 ft 320° 320° 7 kt METAR EHGR 171155Z AUTO 32007KT 280V020 9999 OVC017 18/14 Q1008 WHT BECMG SCT015 BKN020
13:25
M
17 °C 10 km+ 1.600 ft 320° 320° 7 kt METAR EHGR 171125Z AUTO 32007KT 270V350 9999 OVC016 17/14 Q1008 WHT BECMG SCT015 BKN020
12:55
M
17 °C 10 km+ 1.600 ft 320° 320° 9 kt METAR EHGR 171055Z AUTO 32009KT 280V030 9999 OVC016 17/14 Q1008 WHT BECMG SCT015 BKN020
12:25
M
17 °C 10 km+ 1.500 ft 320° 320° 8 kt METAR EHGR 171025Z AUTO 32008KT 260V070 9999 OVC015 17/14 Q1008 WHT BECMG SCT015 BKN020
11:55
M
17 °C 10 km+ 1.200 ft 300° 300° 9 kt METAR EHGR 170955Z AUTO 30009KT 260V350 9999 BKN012 BKN015 OVC019 17/14 Q1008 GRN BECMG SCT015 BKN020
11:25
M
16 °C 10 km+ 1.300 ft 310° 310° 6 kt METAR EHGR 170925Z AUTO 31006KT 310V040 9999 OVC013 16/13 Q1008 GRN BECMG SCT015 BKN020
11:16
M
16 °C 10 km+ 1.300 ft 310° 310° 6 kt METAR EHGR 170916Z AUTO 31006KT 300V040 9999 OVC013 16/13 Q1008 GRN BECMG SCT015 BKN020
10:55
M
16 °C 10 km+ 1.400 ft 340° 340° 5 kt METAR EHGR 170855Z AUTO 34005KT 290V050 9999 SCT012 BKN014 OVC017 16/13 Q1008 GRN BECMG SCT012 BKN015
10:25
M
15 °C 10 km+ 1.000 ft 330° 330° 6 kt METAR EHGR 170825Z AUTO 33006KT 270V020 9999 BKN010 OVC012 15/13 Q1008 GRN BECMG SCT012 BKN015
09:55
M
15 °C 10 km+ 1.000 ft 320° 320° 6 kt METAR EHGR 170755Z AUTO 32006KT 280V030 9999 FEW008 BKN010 OVC015 15/13 Q1008 GRN BECMG SCT012 BKN015
09:30
I
15 °C 9 km 700 ft 330° 330° 6 kt METAR EHGR 170730Z AUTO 33006KT 280V010 9000 BR BKN007 OVC008 15/13 Q1008 GRN BECMG BKN010 OVC012
09:25
I
14 °C 8 km 500 ft 340° 340° 6 kt METAR EHGR 170725Z AUTO 34006KT 280V020 8000 BR BKN005 OVC007 14/13 Q1008 YLO BECMG BKN010 OVC012
09:12
I
14 °C 8 km 500 ft 330° 330° 7 kt METAR EHGR 170712Z AUTO 33007KT 270V020 8000 BR BKN005 OVC006 14/13 Q1008 YLO BECMG BKN010 OVC012
09:00
I
14 °C 8 km 500 ft 330° 330° 6 kt METAR EHGR 170700Z AUTO 33006KT 270V010 8000 BR OVC005 14/13 Q1008 BLACKYLO BECMG BKN010 OVC012
08:55
I
14 °C 8 km 500 ft 330° 330° 6 kt METAR EHGR 170655Z AUTO 33006KT 270V040 8000 BR BKN005 OVC006 14/13 Q1008 BLACKYLO BECMG BKN010 OVC012
08:40
I
14 °C 7 km 600 ft 340° 340° 5 kt METAR EHGR 170640Z AUTO 34005KT 300V050 7000 BR BKN006 OVC007 14/13 Q1008 BLACKYLO BECMG BKN010 OVC012
08:25
I
14 °C 7 km 600 ft 340° 340° 6 kt METAR EHGR 170625Z AUTO 34006KT 290V050 7000 BR OVC006 14/13 Q1008 BLACKYLO
07:55
I
14 °C 7 km 600 ft 320° 320° 5 kt METAR EHGR 170555Z AUTO 32005KT 290V020 7000 BR OVC006 14/13 Q1008 BLACKYLO
Eine Änderung melden